createdAt,value
2023-02-02T00:01:54.895Z,4.84
2023-02-02T00:04:26.015Z,4.86
2023-02-02T00:06:57.187Z,4.85
2023-02-02T00:09:29.087Z,4.85
2023-02-02T00:12:00.991Z,4.82
2023-02-02T00:14:29.541Z,4.85
2023-02-02T00:16:59.076Z,4.85
2023-02-02T00:19:30.286Z,4.80
2023-02-02T00:21:59.527Z,4.72
2023-02-02T00:24:28.333Z,4.63
2023-02-02T00:27:00.708Z,4.65
2023-02-02T00:29:32.451Z,4.70
2023-02-02T00:32:01.009Z,4.68
2023-02-02T00:34:29.436Z,4.67
2023-02-02T00:36:57.903Z,4.67
2023-02-02T00:39:27.534Z,4.64
2023-02-02T00:41:56.247Z,4.61
2023-02-02T00:44:43.887Z,4.59
2023-02-02T00:47:12.474Z,4.54
2023-02-02T00:49:40.952Z,4.48
2023-02-02T00:52:09.450Z,4.35
2023-02-02T00:54:37.862Z,4.27
2023-02-02T00:57:06.455Z,4.27
2023-02-02T00:59:36.233Z,4.20
2023-02-02T01:02:04.659Z,4.22
2023-02-02T01:04:33.145Z,4.17
2023-02-02T01:07:01.639Z,4.13
2023-02-02T01:09:30.327Z,4.09
2023-02-02T01:11:59.356Z,4.21
2023-02-02T01:14:28.419Z,4.18
2023-02-02T01:16:58.639Z,4.15
2023-02-02T01:19:30.124Z,4.10
2023-02-02T01:21:58.766Z,4.10
2023-02-02T01:24:27.447Z,4.04
2023-02-02T01:26:55.969Z,4.18
2023-02-02T01:29:24.621Z,4.16
2023-02-02T01:31:53.250Z,4.04
2023-02-02T01:34:23.389Z,4.04
2023-02-02T01:36:51.880Z,4.01
2023-02-02T01:39:20.585Z,3.98
2023-02-02T01:41:49.401Z,3.87
2023-02-02T01:45:21.148Z,3.89
2023-02-02T01:47:54.073Z,3.89
2023-02-02T01:50:29.838Z,3.84
2023-02-02T01:53:03.399Z,3.86
2023-02-02T01:55:35.892Z,3.95
2023-02-02T01:58:08.840Z,4.04
2023-02-02T02:00:38.021Z,4.08
2023-02-02T02:03:12.520Z,4.16
2023-02-02T02:05:48.105Z,4.19
2023-02-02T02:08:20.716Z,4.23
2023-02-02T02:10:49.303Z,4.26
2023-02-02T02:13:19.409Z,4.35
2023-02-02T02:16:17.476Z,4.38
2023-02-02T02:18:59.144Z,4.37
2023-02-02T02:22:12.190Z,4.36
2023-02-02T02:25:40.105Z,4.36
2023-02-02T02:28:59.465Z,4.33
2023-02-02T02:32:01.342Z,4.33
2023-02-02T02:34:49.188Z,4.29
2023-02-02T02:37:30.837Z,4.27
2023-02-02T02:40:11.275Z,4.29
2023-02-02T02:42:46.681Z,4.30
2023-02-02T02:45:16.144Z,4.26
2023-02-02T02:47:46.370Z,4.29
2023-02-02T02:50:14.930Z,4.29
2023-02-02T02:52:43.793Z,4.30
2023-02-02T02:55:13.863Z,4.34
2023-02-02T02:58:08.541Z,4.32
2023-02-02T03:01:03.823Z,4.34
2023-02-02T05:19:49.656Z,3.87
2023-02-02T05:22:18.573Z,3.90
2023-02-02T05:24:47.316Z,4.02
2023-02-02T05:27:15.876Z,4.07
2023-02-02T05:29:44.215Z,4.07
2023-02-02T05:32:12.565Z,4.11
2023-02-02T05:34:40.955Z,4.12
2023-02-02T05:37:10.762Z,4.12
2023-02-02T05:39:39.148Z,4.15
2023-02-02T05:42:07.644Z,4.19
2023-02-02T05:44:35.983Z,4.23
2023-02-02T05:47:04.313Z,4.25
2023-02-02T05:49:32.738Z,4.22
2023-02-02T05:52:01.620Z,4.23
2023-02-02T05:54:31.286Z,4.22
2023-02-02T05:57:01.313Z,4.23
2023-02-02T05:59:29.600Z,4.23
2023-02-02T06:01:57.965Z,4.20
2023-02-02T06:04:26.269Z,4.20
2023-02-02T06:06:54.677Z,4.20
2023-02-02T06:09:23.816Z,4.12
2023-02-02T06:11:53.509Z,4.18
2023-02-02T06:14:22.862Z,4.23
2023-02-02T06:16:51.421Z,4.25
2023-02-02T06:19:21.020Z,4.22
2023-02-02T06:21:49.453Z,4.13
2023-02-02T06:24:18.464Z,4.10
2023-02-02T06:26:48.518Z,4.00
2023-02-02T06:29:19.451Z,3.98
2023-02-02T06:31:48.074Z,4.07
2023-02-02T06:34:17.600Z,4.07
2023-02-02T06:36:45.932Z,4.10
2023-02-02T06:39:14.248Z,4.15
2023-02-02T06:41:44.828Z,4.17
2023-02-02T06:44:17.211Z,4.21
2023-02-02T06:46:46.898Z,4.23
2023-02-02T06:49:15.297Z,4.26
2023-02-02T06:51:43.669Z,4.29
2023-02-02T06:54:12.113Z,4.22
2023-02-02T06:56:40.552Z,4.18
2023-02-02T06:59:09.284Z,4.15
2023-02-02T07:01:37.880Z,4.05
2023-02-02T07:04:07.614Z,3.98
2023-02-02T07:06:36.010Z,3.88
2023-02-02T07:09:04.409Z,3.83
2023-02-02T07:11:37.365Z,3.80
2023-02-02T07:14:11.219Z,3.78
2023-02-02T07:16:39.592Z,3.77
2023-02-02T07:19:09.703Z,3.80
2023-02-02T07:21:38.009Z,3.83
2023-02-02T07:24:08.339Z,3.85
2023-02-02T07:26:37.210Z,3.93
2023-02-02T07:29:06.719Z,3.99
2023-02-02T07:31:36.814Z,4.05
2023-02-02T07:34:05.817Z,4.19
2023-02-02T07:36:35.671Z,4.23
2023-02-02T07:39:07.820Z,4.20
2023-02-02T07:41:37.788Z,4.23
2023-02-02T07:44:07.339Z,4.27
2023-02-02T07:46:35.766Z,4.29
2023-02-02T07:49:06.145Z,4.28
2023-02-02T07:51:38.038Z,4.27
2023-02-02T07:54:07.982Z,4.22
2023-02-02T07:56:36.672Z,4.21
2023-02-02T07:59:05.782Z,4.21
2023-02-02T08:01:34.458Z,4.22
2023-02-02T08:04:03.501Z,4.21
2023-02-02T08:06:35.865Z,4.18
2023-02-02T08:09:08.783Z,4.17
2023-02-02T08:11:41.794Z,4.16
2023-02-02T08:14:13.936Z,4.16
2023-02-02T08:16:42.235Z,4.24
2023-02-02T08:19:11.960Z,4.25
2023-02-02T08:21:41.663Z,4.31
2023-02-02T08:24:10.221Z,4.37
2023-02-02T08:26:38.666Z,4.35
2023-02-02T08:29:09.335Z,4.35
2023-02-02T08:31:41.919Z,4.55
2023-02-02T08:34:11.825Z,4.60
2023-02-02T08:36:42.211Z,4.78
2023-02-02T08:39:14.489Z,4.98
2023-02-02T08:41:42.984Z,5.01
2023-02-02T08:44:15.629Z,4.88
2023-02-02T08:46:43.882Z,4.75
2023-02-02T08:49:13.859Z,4.85
2023-02-02T08:51:43.773Z,4.83
2023-02-02T08:54:12.239Z,4.74
2023-02-02T08:56:40.571Z,4.79
2023-02-02T08:59:09.080Z,5.07
2023-02-02T09:01:37.558Z,5.19
2023-02-02T09:04:10.299Z,5.07
2023-02-02T09:06:43.878Z,4.77
2023-02-02T09:09:16.269Z,4.88
2023-02-02T09:11:46.145Z,4.75
2023-02-02T09:14:15.882Z,4.74
2023-02-02T09:16:44.459Z,4.72
2023-02-02T09:19:13.507Z,4.33
2023-02-02T09:21:43.496Z,4.52
2023-02-02T09:24:15.153Z,4.68
2023-02-02T09:26:45.508Z,4.73
2023-02-02T09:29:19.331Z,5.07
2023-02-02T09:31:48.203Z,5.35
2023-02-02T09:34:18.542Z,5.03
2023-02-02T09:36:48.559Z,4.75
2023-02-02T09:39:18.562Z,4.85
2023-02-02T09:42:33.257Z,4.90
2023-02-02T09:45:09.622Z,5.50
2023-02-02T09:47:55.683Z,6.24
2023-02-02T09:50:49.509Z,6.04
2023-02-02T09:53:28.931Z,5.81
2023-02-02T09:56:01.625Z,5.90
2023-02-02T09:58:35.921Z,6.23
2023-02-02T10:01:10.995Z,6.48
2023-02-02T10:03:49.216Z,6.34
2023-02-02T10:06:33.921Z,6.45
2023-02-02T10:09:22.720Z,6.93
2023-02-02T10:11:59.407Z,6.51
2023-02-02T10:14:34.687Z,6.16
2023-02-02T10:17:27.431Z,5.98
2023-02-02T10:20:05.057Z,6.00
2023-02-02T10:22:35.828Z,6.26
2023-02-02T10:25:06.483Z,6.08
2023-02-02T10:27:40.268Z,5.77
2023-02-02T10:30:22.852Z,5.97
2023-02-02T10:33:07.037Z,6.82
2023-02-02T10:35:48.288Z,7.47
2023-02-02T10:38:28.345Z,7.34
2023-02-02T10:41:13.655Z,7.06
2023-02-02T10:44:07.451Z,6.59
2023-02-02T10:46:42.917Z,6.41
2023-02-02T10:49:27.194Z,6.27
2023-02-02T10:52:05.611Z,5.51
2023-02-02T10:54:57.248Z,5.44
2023-02-02T10:57:50.375Z,5.75
2023-02-02T11:00:26.919Z,6.06
2023-02-02T11:02:56.182Z,6.00
2023-02-02T11:05:48.140Z,6.14
2023-02-02T11:08:21.103Z,6.79
2023-02-02T11:10:55.751Z,6.44
2023-02-02T11:13:33.520Z,6.21
2023-02-02T11:16:42.227Z,5.96
2023-02-02T11:19:30.460Z,5.55
2023-02-02T11:22:02.147Z,5.43
2023-02-02T11:24:36.579Z,5.35
2023-02-02T11:27:13.901Z,5.26
2023-02-02T11:29:48.317Z,5.38
2023-02-02T11:32:27.473Z,5.08
2023-02-02T11:35:23.352Z,5.11
2023-02-02T11:38:10.742Z,5.02
2023-02-02T11:40:43.253Z,5.16
2023-02-02T11:43:19.701Z,5.26
2023-02-02T11:45:57.173Z,5.30
2023-02-02T11:48:33.617Z,5.76
2023-02-02T11:51:03.277Z,6.27
2023-02-02T11:53:34.620Z,6.31
2023-02-02T11:56:08.726Z,6.11
2023-02-02T11:58:47.435Z,5.99
2023-02-02T12:01:28.386Z,5.97
2023-02-02T12:03:59.272Z,6.18
2023-02-02T12:06:36.142Z,6.06
2023-02-02T12:09:14.161Z,6.17
2023-02-02T12:11:58.700Z,6.22
2023-02-02T12:14:35.526Z,6.32
2023-02-02T12:17:16.390Z,6.18
2023-02-02T12:20:13.090Z,6.42
2023-02-02T12:23:05.329Z,6.65
2023-02-02T12:26:15.137Z,6.14
2023-02-02T12:29:09.084Z,5.65
2023-02-02T12:31:56.952Z,5.49
2023-02-02T12:34:43.434Z,5.62
2023-02-02T12:37:26.775Z,5.41
2023-02-02T12:40:21.280Z,5.47
2023-02-02T12:43:12.033Z,5.50
2023-02-02T12:46:12.014Z,5.57
2023-02-02T12:49:08.794Z,5.51
2023-02-02T12:51:54.569Z,5.59
2023-02-02T12:54:57.264Z,5.19
2023-02-02T12:57:45.436Z,5.03
2023-02-02T13:00:42.723Z,5.01
2023-02-02T13:03:32.989Z,4.92
2023-02-02T13:06:34.487Z,4.75
2023-02-02T13:09:13.470Z,4.76
2023-02-02T13:11:50.006Z,4.66
2023-02-02T13:14:27.586Z,4.52
2023-02-02T13:17:03.843Z,4.55
2023-02-02T13:19:42.149Z,4.61
2023-02-02T13:22:19.997Z,4.33
2023-02-02T13:24:56.377Z,4.26
2023-02-02T13:27:26.593Z,4.27
2023-02-02T13:30:03.332Z,4.26
2023-02-02T13:32:37.468Z,4.35
2023-02-02T13:35:18.355Z,4.33
2023-02-02T13:37:55.598Z,4.35
2023-02-02T13:40:35.365Z,4.60
2023-02-02T13:43:29.890Z,4.99
2023-02-02T13:46:13.970Z,4.96
2023-02-02T13:48:58.801Z,4.96
2023-02-02T13:51:55.102Z,4.82
2023-02-02T13:55:19.750Z,4.57
2023-02-02T13:58:36.383Z,4.25
2023-02-02T14:01:10.262Z,3.98
2023-02-02T14:03:41.539Z,3.88
2023-02-02T14:06:17.355Z,3.75
2023-02-02T14:08:54.854Z,3.70
2023-02-02T14:11:30.422Z,3.63
2023-02-02T14:14:27.548Z,3.58
2023-02-02T14:16:56.926Z,3.60
2023-02-02T14:19:53.205Z,3.62
2023-02-02T14:22:43.398Z,3.61
2023-02-02T14:25:53.505Z,3.66
2023-02-02T14:28:48.598Z,3.67
2023-02-02T14:31:54.459Z,3.69
2023-02-02T14:34:35.039Z,3.75
2023-02-02T14:37:35.795Z,3.80
2023-02-02T14:40:30.996Z,3.82
2023-02-02T14:43:37.475Z,3.89
2023-02-02T14:46:40.339Z,3.96
2023-02-02T14:49:26.034Z,3.86
2023-02-02T14:52:05.564Z,3.94
2023-02-02T14:54:40.282Z,3.91
2023-02-02T14:57:28.044Z,3.83
2023-02-02T15:00:01.355Z,3.66
2023-02-02T15:02:36.401Z,3.63
2023-02-02T15:05:46.451Z,3.71
2023-02-02T15:08:26.124Z,3.60
2023-02-02T15:11:26.281Z,3.45
2023-02-02T15:14:24.440Z,3.22
2023-02-02T15:16:53.920Z,3.05
2023-02-02T15:19:35.716Z,2.82
2023-02-02T15:22:27.576Z,2.62
2023-02-02T15:24:59.344Z,2.43
2023-02-02T15:27:29.546Z,2.30
2023-02-02T15:30:05.386Z,2.19
2023-02-02T15:32:35.507Z,2.09
2023-02-02T15:35:13.759Z,1.95
2023-02-02T15:37:49.135Z,1.82
2023-02-02T15:40:25.177Z,1.68
2023-02-02T15:43:00.368Z,1.52
2023-02-02T15:45:48.589Z,1.36
2023-02-02T15:48:30.059Z,1.25
2023-02-02T15:51:04.107Z,1.13
2023-02-02T15:53:49.837Z,1.08
2023-02-02T15:56:30.609Z,0.97
2023-02-02T15:59:01.786Z,0.84
2023-02-02T16:01:45.219Z,0.91
2023-02-02T16:04:22.684Z,0.66
2023-02-02T16:06:51.772Z,0.47
2023-02-02T16:09:28.098Z,0.24
2023-02-02T16:11:57.021Z,0.05
2023-02-02T16:14:26.129Z,-0.10
2023-02-02T16:16:54.580Z,-0.14
2023-02-02T16:19:26.160Z,-0.26
2023-02-02T16:21:59.681Z,-0.46
2023-02-02T16:24:35.253Z,-0.57
2023-02-02T16:27:08.286Z,-0.66
2023-02-02T16:29:37.248Z,-0.74
2023-02-02T16:32:06.872Z,-0.78
2023-02-02T16:34:50.110Z,-0.65
2023-02-02T16:37:27.332Z,-0.62
2023-02-02T16:39:58.853Z,-0.64
2023-02-02T16:42:31.794Z,-0.68
2023-02-02T16:45:01.815Z,-0.78
2023-02-02T16:47:39.871Z,-0.87
2023-02-02T16:50:32.120Z,-0.91
2023-02-02T16:53:05.037Z,-0.99
2023-02-02T16:55:49.813Z,-1.09
2023-02-02T16:58:24.518Z,-1.16
2023-02-02T17:01:19.377Z,-1.16
2023-02-02T17:03:54.205Z,-1.23
2023-02-02T17:06:45.926Z,-1.22
2023-02-02T17:09:34.742Z,-1.14
2023-02-02T17:12:35.680Z,-1.10
2023-02-02T17:15:29.124Z,-0.95
2023-02-02T17:17:57.770Z,-0.99
2023-02-02T17:20:27.453Z,-1.02
2023-02-02T17:23:00.982Z,-0.94
2023-02-02T17:25:38.238Z,-0.98
2023-02-02T17:28:14.343Z,-0.99
2023-02-02T17:30:44.506Z,-0.92
2023-02-02T17:33:15.782Z,-0.95
2023-02-02T17:35:55.752Z,-0.88
2023-02-02T17:38:27.862Z,-1.05
2023-02-02T17:41:01.309Z,-1.20
2023-02-02T17:43:32.425Z,-1.27
2023-02-02T17:46:04.769Z,-1.35
2023-02-02T17:48:34.581Z,-1.41
2023-02-02T17:51:09.615Z,-1.47
2023-02-02T17:53:38.203Z,-1.50
2023-02-02T17:56:07.597Z,-1.54
2023-02-02T17:58:37.518Z,-1.63
2023-02-02T18:01:07.342Z,-1.71
2023-02-02T18:03:39.602Z,-1.78
2023-02-02T18:06:08.935Z,-1.81
2023-02-02T18:08:37.957Z,-1.87
2023-02-02T18:11:06.812Z,-1.89
2023-02-02T18:13:36.971Z,-1.66
2023-02-02T18:16:08.414Z,-1.69
2023-02-02T18:18:37.312Z,-1.78
2023-02-02T18:21:10.679Z,-1.89
2023-02-02T18:23:42.658Z,-1.96
2023-02-02T18:26:19.727Z,-2.11
2023-02-02T18:28:51.285Z,-2.22
2023-02-02T18:31:24.037Z,-2.26
2023-02-02T18:33:53.844Z,-2.20
2023-02-02T18:36:23.924Z,-2.25
2023-02-02T18:38:54.040Z,-2.30
2023-02-02T18:41:22.884Z,-2.29
2023-02-02T18:43:56.144Z,-2.25
2023-02-02T18:46:24.904Z,-2.20
2023-02-02T18:48:53.396Z,-2.19
2023-02-02T18:51:22.327Z,-2.17
2023-02-02T18:53:51.265Z,-2.15
2023-02-02T18:56:22.618Z,-2.23
2023-02-02T18:58:52.466Z,-2.27
2023-02-02T19:01:23.463Z,-2.26
2023-02-02T19:03:57.221Z,-2.30
2023-02-02T19:06:44.337Z,-2.33
2023-02-02T19:09:19.519Z,-2.33
2023-02-02T19:11:55.034Z,-2.35
2023-02-02T19:14:29.877Z,-2.22
2023-02-02T19:17:09.871Z,-2.23
2023-02-02T19:19:40.449Z,-2.22
2023-02-02T19:22:20.972Z,-2.20
2023-02-02T19:24:52.066Z,-2.14
2023-02-02T19:27:26.678Z,-1.97
2023-02-02T19:30:02.017Z,-1.86
2023-02-02T19:32:34.929Z,-1.77
2023-02-02T19:35:04.805Z,-1.77
2023-02-02T19:37:40.113Z,-1.69
2023-02-02T19:40:23.595Z,-1.74
2023-02-02T19:42:58.810Z,-1.79
2023-02-02T19:45:34.414Z,-1.76
2023-02-02T19:48:16.769Z,-1.62
2023-02-02T19:50:45.983Z,-1.52
2023-02-02T19:53:21.784Z,-1.40
2023-02-02T19:55:51.546Z,-1.42
2023-02-02T19:58:23.468Z,-1.42
2023-02-02T20:00:57.397Z,-1.41
2023-02-02T20:03:30.131Z,-1.43
2023-02-02T20:06:00.725Z,-1.37
2023-02-02T20:08:39.720Z,-1.30
2023-02-02T20:11:32.333Z,-1.26
2023-02-02T20:14:03.029Z,-1.12
2023-02-02T20:16:42.146Z,-1.05
2023-02-02T20:19:23.842Z,-1.02
2023-02-02T20:21:54.366Z,-0.98
2023-02-02T20:24:28.217Z,-0.93
2023-02-02T20:27:02.668Z,-0.84
2023-02-02T20:29:44.145Z,-0.64
2023-02-02T20:32:23.352Z,-0.52
2023-02-02T20:34:52.662Z,-0.36
2023-02-02T20:37:29.238Z,-0.14
2023-02-02T20:40:01.517Z,0.01
2023-02-02T20:42:31.108Z,0.09
2023-02-02T20:45:00.047Z,0.15
2023-02-02T20:47:30.378Z,0.23
2023-02-02T20:50:01.703Z,0.32
2023-02-02T20:52:31.193Z,0.34
2023-02-02T20:54:59.879Z,0.43
2023-02-02T20:57:28.334Z,0.48
2023-02-02T20:59:57.765Z,0.56
2023-02-02T21:02:28.034Z,0.68
2023-02-02T21:04:57.810Z,0.69
2023-02-02T21:07:27.082Z,0.74
2023-02-02T21:09:55.699Z,0.78
2023-02-02T21:12:25.665Z,0.81
2023-02-02T21:14:55.077Z,0.87
2023-02-02T21:17:23.457Z,0.90
2023-02-02T21:19:52.078Z,0.97
2023-02-02T21:22:25.107Z,0.98
2023-02-02T21:24:53.607Z,1.01
2023-02-02T21:27:22.007Z,1.05
2023-02-02T21:29:51.088Z,1.09
2023-02-02T21:32:19.533Z,1.17
2023-02-02T21:34:47.983Z,1.21
2023-02-02T21:37:17.989Z,1.25
2023-02-02T21:39:51.128Z,1.31
2023-02-02T21:42:23.507Z,1.30
2023-02-02T21:44:57.720Z,1.32
2023-02-02T21:47:35.048Z,1.34
2023-02-02T21:50:16.670Z,1.42
2023-02-02T21:52:45.888Z,1.47
2023-02-02T21:55:36.844Z,1.52
2023-02-02T21:58:21.923Z,1.53
2023-02-02T22:00:51.237Z,1.53
2023-02-02T22:03:35.622Z,1.58
2023-02-02T22:06:28.783Z,1.52
2023-02-02T22:09:14.265Z,1.57
2023-02-02T22:11:49.235Z,1.55
2023-02-02T22:14:23.889Z,1.60
2023-02-02T22:16:57.665Z,1.61
2023-02-02T22:19:36.350Z,1.63
2023-02-02T22:22:16.214Z,1.71
2023-02-02T22:24:47.724Z,1.75
2023-02-02T22:27:25.885Z,1.73
2023-02-02T22:30:03.949Z,1.79
2023-02-02T22:32:32.259Z,1.83
2023-02-02T22:35:00.621Z,1.84
2023-02-02T22:37:28.933Z,1.88
2023-02-02T22:39:58.585Z,1.91
2023-02-02T22:42:30.043Z,2.04
2023-02-02T22:44:58.379Z,2.13
2023-02-02T22:47:26.853Z,2.19
2023-02-02T22:49:55.351Z,2.32
2023-02-02T22:52:23.736Z,2.23
2023-02-02T22:54:52.085Z,2.18
2023-02-02T22:57:21.686Z,2.14
2023-02-02T22:59:51.347Z,2.25
2023-02-02T23:02:22.786Z,2.27
2023-02-02T23:04:51.219Z,2.31
2023-02-02T23:07:20.718Z,2.28
2023-02-02T23:10:01.519Z,2.28
2023-02-02T23:12:30.378Z,2.30
2023-02-02T23:15:00.060Z,2.30
2023-02-02T23:17:28.686Z,2.31
2023-02-02T23:19:56.986Z,2.49
2023-02-02T23:22:25.519Z,2.52
2023-02-02T23:24:53.801Z,2.48
2023-02-02T23:27:26.242Z,2.48
2023-02-02T23:29:54.883Z,2.40
2023-02-02T23:32:24.581Z,2.32
2023-02-02T23:34:52.881Z,2.29
2023-02-02T23:37:21.926Z,2.27
2023-02-02T23:39:50.508Z,2.25
2023-02-02T23:42:21.489Z,2.31
2023-02-02T23:44:50.269Z,2.31
2023-02-02T23:47:19.309Z,2.21
2023-02-02T23:49:49.275Z,2.19
2023-02-02T23:52:19.587Z,2.18
2023-02-02T23:54:48.151Z,2.14
2023-02-02T23:57:16.783Z,2.08
2023-02-02T23:59:45.120Z,2.06
